Skip to content

GuitarMania

M
(*.78.168.212) 조회 수 34051 댓글 10
바덴재즈 1악장입니다.
제 여친이 친겁니다. 또 제가 막 드리밀어서 강제로 녹음했죠..ㅎㅎ
Comment '10'
  • 샤콘느1004 2007.01.09 16:07 (*.216.43.82)
    꼴까닥...
  • 샤콘느1004 2007.01.09 16:09 (*.216.43.82)
    녹음이아쉽네요..라이브로 못들어보는게 아쉬울정도
    뛰어난 테크닉의 소유자이시군요 숨을 못쉴정도로..
  • 콩쥐 2007.01.09 16:45 (*.105.99.108)
    연주회라도 열리면 꼭 가보고 싶네요....
  • MSGr 2007.01.09 17:09 (*.78.168.212)
    제가 가진 녹음할수있는게 엠피삼 뿐인데 ...왜케 잡음이 많이 잡히나요...조언좀해줘요.
    연주회하게되면 꼭 오세요.. 근데 언제쯤 할 수있을지 몰라요...ㅋㅋㅋ
  • 해쟁 2007.01.09 21:36 (*.37.230.33)
    헐~ ^^ 이곡 조언 받던 그날이 떠오르네요^^ 술도 기타실력만큼이나 무지막지하게 세신 울 M스승님..ㅋㅋ건강 하세용~~저 6월부터 서울유학(취업 실패..ㅠㅠ)갈듯한데..가게되면 찾아뵙겠습니다..^^ 요새 먹고 살기가..흑..
  • MSGr 2007.01.09 23:00 (*.78.168.212)
    해쟁쓰 ,,올라오면 연락을 행
    바덴재즈 듣고있는데 ...잘치네..녹음하기싫다고 하더니 치기 시작하니깐 그래도 열심히치는...ㅋㅋ
    3악장을 훨 더 잘치는데..난중에 또 녹음 시켜야겠습니다.
  • MSGr 2007.01.10 01:16 (*.78.168.212)
    또 듣고있는데 ...노래가 아주 좋다..캬~
    해쟁..우리 올해부터 술끊었는데..;;
  • 애플파이 2007.01.10 11:21 (*.200.19.3)
    아무거나 드리밀면(?) 다 쳐주시는군요..... 이렇게나 멋지게......
    전 옆에 그런 사람 있었으면 기타 같은거 배우려고 하지도 않았을 것 같네요.^^
    이분은 아직도 전공하시나요? 하여튼 라이브로 보면 참 멋질 것 같네요.
  • 샤론 2007.01.10 12:41 (*.80.210.173)
    정말 국제적인 실력이네요 한국에만 있기엔 너무 아까워요...
  • wild wind 2007.12.07 20:01 (*.172.42.34)
    표현력,기교? 모두 뛰어나십니다.
?

List of Articles
번호 제목 글쓴이 날짜 조회 수
» Baden Jazz Suite 1.Simplicitas_jiri JIRMAL 10 file M 2007.01.09 34051
1840 알함브라의추억_타레가 33 file M 2007.01.08 28383
1839 The temple of the king(산너머남촌) 3 야매 2007.01.08 37078
1838 오빠(산너머남촌) 6 야매 2007.01.08 25682
1837 어서말을해(산너머남촌) 4 야매 2007.01.08 34920
1836 헝가리무곡 No.5 4 야매 2007.01.08 32717
1835 Night club 1960_ A. piazolla (2중주) 10 file ROS 2007.01.07 28655
1834 베네주엘라왈츠2번_라우로 14 file MSGr 2007.01.04 32728
1833 Spanish Dance No.2 (Oriental)-E.Granados 14 file Jason 2007.01.03 34861
1832 evocation 5 file sky600 2007.01.03 39658
1831 fantasie 9 file 노경훈 2007.01.02 26706
1830 Bagatelle no. 5 op. 43 (from Mes Ennuis Six Bagatelles) --- F.Sor 7 file 고정석 2007.01.01 25845
1829 jeux interdits (금지된장난)* 2 file sky600 2006.12.31 38734
1828 저나름의 태극기휘날리며..... 2 file sky600 2006.12.31 23467
1827 이거 제목.. 2 file 점프 2006.12.30 27503
1826 Vivaldi Concerto in D Major. 3악장 12 file Jason 2006.12.29 24732
1825 Vivaldi Concerto in D Major. 2악장 12 file Jason 2006.12.29 26469
1824 Vivaldi Concerto in D Major 1악장 15 file Jason 2006.12.29 29094
1823 [re] Vivaldi Concerto in D Major 전악장 1 file Jason 2009.01.17 22905
1822 Triste Santuario 슬픈예배당 3 file sky600 2006.12.28 32029
1821 사계중 겨울 1악장 / A, vivaldi 9 file ROS 2006.12.28 29709
1820 BWV998 Allegro 입니다.. 10 file JoDaC 2006.12.24 26367
1819 Andante Largo ---- F.Sor op. 5 No.5 10 file 고정석 2006.12.24 25367
1818 부에노스 아이레스 모음곡(빠리공연실황) 5 cocteau 2006.12.23 33637
1817 Villancico de Navidad -- A.Barrios Mangore 12 file 고정석 2006.12.22 31811
1816 BWV 996 allemande 10 file ROS(쫌선생) 2006.12.20 23216
1815 Oh,my love - Jhon Lennon arr.박지열 41 file 아이모레스 2006.12.20 31079
1814 마법의 성... 7 file ROS(쫌선생) 2006.12.17 22072
1813 고야의 마하(빠리연주실황) 16 콕토 2006.12.16 25438
1812 헝가리 환상곡(파리공연실황) 5 콕토 2006.12.15 31705
1811 White Christmas 19 file 아이모레스 2006.12.15 31627
1810 빈센트 - Don Mclean 52 file Jason 2006.12.12 29424
1809 Fantasia - Alonso mudarra 34 file Jason 2006.12.09 29146
1808 투리나 쏘나타 1악장 8 콕토 2006.12.08 26830
1807 러브 어페어 피아노 솔로 -> 기타로 편곡해서 연주 8 file CSH 2006.12.05 30471
1806 모차르트 string quintet k406 1악장 8 guitar love 2006.12.05 17707
1805 No.11 Schottish-Choro by H.Villa-Lobos 29 file Jason 2006.12.04 25484
1804 pipo의 cancion y danza No.1 26 file JoDaC 2006.12.03 24663
1803 Maja de Goya* 9 file 스타 2006.12.01 26570
1802 Walking in Rio 23 file epiles 2006.11.30 26830
1801 Prelude No.5 - Villa Lobos 25 file Jason 2006.11.30 24810
1800 It could have been - Ulli Bogershausen 22 file 아이모레스 2006.11.25 25042
1799 UN DIA DE NOVIEMBRE (11월의 어느날) 15 file niceplace 2006.11.23 24502
1798 prelude No.4 - Villa Lobos 16 file Jason 2006.11.19 23394
1797 jares - gamborena 6 file Kuk Kon Cho 2006.11.19 22960
1796 adios - madriguera 5 file Kuk Kon Cho 2006.11.19 22831
1795 아랑훼즈 2악장 27 file Jason 2006.11.17 29707
1794 월광- 드뷔시 6 file 루니 2006.11.14 19206
1793 Prelude No.2 - Villa Lobos 23 file Jason 2006.11.13 28480
1792 엄마야 누나야 17 file 괭퇘 2006.11.11 30835
1791 바흐 - 사라방드와 지그 30 file 김상욱 2006.11.10 22898
1790 왈츠4번이에여~~~ 56 file 김은미 2006.11.09 25963
1789 Grand Solo - F. Sor 29 file Jason 2006.11.09 25859
1788 Rumores De La Caleta(Malaguena) - I. Albeniz 10 file Jason 2006.11.08 23647
1787 Romance 13 file Jason 2006.11.07 25720
1786 롤랑디용 - 탱고엔스카이 21 file 김상욱 2006.11.06 24959
1785 10월의 어느 멋진 날에 / arr. 김문기* 110 file 이진성 2006.11.05 43617
1784 꽃밭에서... 이봉조곡 / 안형수편곡 12 file 아이모레스 2006.11.05 34054
1783 아라비아기상곡 5 file 여섯줄 2006.11.04 20675
1782 밀롱가 5 file 여섯줄 2006.11.04 21352
1781 Felicidade - A.C. Jobim(arr.Roland Dyens) 13 file trashin 2006.11.01 24129
1780 Verdi - La Traviata 19 file Jason 2006.10.30 26917
1779 Baden Jazz Suite 1st Mov. 8 file 봉그니 2006.10.29 19841
1778 Romance Nr.1 - F. Kleynjans 7 file 차차일병 2006.10.29 22382
1777 Vinas - Fantasia Original 22 file jason 2006.10.26 26876
1776 마리아 루이사 19 file - 情 - 2006.10.25 27279
1775 타레가 - 세개의 마주르카 16 file Jason 2006.10.24 22985
1774 안신영님 편곡... I dreamt I dwelt in marble hall from _The Bohemian Girl 18 file 아이모레스 2006.10.23 18329
1773 보리밭 / 윤용하 arr. 박윤관 23 file 이진성 2006.10.21 25731
1772 이병우-어머니 33 file Orpheus15 2006.10.11 25497
1771 Over the Rainbow / H.Arlen 11 file April 2006.10.10 22863
1770 Falla - El Amor Brujo 5 file Cho,Kuk Kon 2006.10.03 24610
1769 Leo Brouwer : Un dia de Noviembre (11월의 어느날) 8 file 고정석 2006.10.01 30395
1768 Okazaki Rynten - 구름위의 작은 섬 16 file 찬찬 2006.10.01 24364
1767 바이스-Sonate in a-moll (Musette) 16 file 2006.09.29 23188
1766 [동영상] Romanz for Guitar <N.Paganini> 6 디_Gitarre 2006.09.27 23861
1765 가을편지 : 김민기 10 file 고정석 2006.09.24 23435
1764 F.Kleynans : La Mignonnette ( Valse en Mi mineur ) 8 file 고정석 2006.09.22 21008
1763 Endless Rain - X japan 13 file - 情 - 2006.09.20 22372
1762 사랑 / 홍난파 arr. 박윤관 12 이진성 2006.09.16 22785
1761 [동영상]Sonate No.1 <Heinrich Albert> 5 디_Gitarre 2006.09.15 24053
1760 [동영상] 고난의길(Gaspel) 9 디_Gitarre 2006.09.14 20665
1759 바이스-Sonate in a-moll (Courante) 17 file 2006.09.14 26082
1758 쌈발라다 - Rico Stover 11 file bradpitt 2006.09.12 25002
1757 바이스-Sonate in a-moll (Entree) 16 file 2006.09.11 25175
1756 옛 생각 (재녹음) 6 file niceplace 2006.09.10 31816
1755 Sons de Carrilhoes / Joao Pernambuco 8 file 이진성 2006.09.10 28176
1754 11월의 어느날-Leo Brouwer 6 file 소품사랑 2006.09.10 24665
1753 LaMiD님의 Etude 06... 12 file 아이모레스 2006.09.03 68695
1752 F.Kleynjans : Chason en Si mineur pour guitare 18 file 고정석 2006.09.01 25755
1751 D.Aguado - Rondo Op.2 no.3 10 file 당배 2006.09.01 27142
1750 Suite No.1 Mazurka-Choro 7 file 당배 2006.09.01 24788
1749 캐논변주곡 함 올려보아요 ^^ 21 file 정성민 2006.09.01 32088
1748 태극기 휘날리며(클래식기타) 7 file 용접맨 2006.08.31 50488
1747 F.Kleynjans : Petite Serenade 8 file 고정석 2006.08.31 24762
1746 소르의 판타지아입니다. 24 김은미 2006.08.29 29902
1745 바이스-Fantasie* 44 file 2006.08.28 26323
1744 Simple melodie / F. Kleynjans* 10 file 이진성 2006.08.26 21451
1743 F.Tarrega - Maria (Gavotte) 9 file 고정석 2006.08.26 46540
1742 인하대 06년도 연주회 3중주. RV.532 4 ICGE 2006.08.23 22989
Board Pagination ‹ Prev 1 ... 11 12 13 14 15 16 17 18 19 20 21 22 23 24 25 26 27 28 29 30 ... 39 Next ›
/ 39

나눔글꼴 설치 안내


이 PC에는 나눔글꼴이 설치되어 있지 않습니다.

이 사이트를 나눔글꼴로 보기 위해서는
나눔글꼴을 설치해야 합니다.

설치 취소

Designed by sketchbooks.co.kr / sketchbook5 board skin

Sketchbook5, 스케치북5

Sketchbook5, 스케치북5

Sketchbook5, 스케치북5

Sketchbook5, 스케치북5

Powered by Xpress Engine / Designed by hikaru100

abcXYZ, 세종대왕,1234

abcXYZ, 세종대왕,1234